sensor_id;sensor_type;location;lat;lon;timestamp;pressure;altitude;pressure_sealevel;temperature;humidity
29909;BME280;36247;51.952;6.146;2023-05-09T00:00:14;101674.91;;;15.77;100.00
29909;BME280;36247;51.952;6.146;2023-05-09T00:02:41;101674.13;;;15.90;100.00
29909;BME280;36247;51.952;6.146;2023-05-09T00:05:11;101674.97;;;15.81;100.00
29909;BME280;36247;51.952;6.146;2023-05-09T00:07:37;101661.44;;;15.63;100.00
29909;BME280;36247;51.952;6.146;2023-05-09T00:10:03;101660.53;;;15.56;100.00
29909;BME280;36247;51.952;6.146;2023-05-09T00:12:31;101657.94;;;15.70;100.00
29909;BME280;36247;51.952;6.146;2023-05-09T00:14:57;101654.38;;;15.68;100.00
29909;BME280;36247;51.952;6.146;2023-05-09T00:17:23;101660.50;;;15.53;100.00
29909;BME280;36247;51.952;6.146;2023-05-09T00:19:49;101654.31;;;15.60;100.00
29909;BME280;36247;51.952;6.146;2023-05-09T00:22:19;101653.44;;;15.63;100.00
29909;BME280;36247;51.952;6.146;2023-05-09T00:24:46;101649.81;;;15.51;100.00
29909;BME280;36247;51.952;6.146;2023-05-09T00:27:12;101639.06;;;15.36;100.00
29909;BME280;36247;51.952;6.146;2023-05-09T00:29:37;101644.28;;;15.25;100.00
29909;BME280;36247;51.952;6.146;2023-05-09T00:32:03;101642.59;;;15.38;100.00
29909;BME280;36247;51.952;6.146;2023-05-09T00:34:31;101633.72;;;15.38;100.00
29909;BME280;36247;51.952;6.146;2023-05-09T00:36:57;101627.53;;;15.49;100.00
29909;BME280;36247;51.952;6.146;2023-05-09T00:39:23;101621.34;;;15.55;100.00
29909;BME280;36247;51.952;6.146;2023-05-09T00:41:48;101620.44;;;15.53;100.00
29909;BME280;36247;51.952;6.146;2023-05-09T00:44:14;101614.22;;;15.54;100.00
29909;BME280;36247;51.952;6.146;2023-05-09T00:46:40;101622.16;;;15.46;100.00
29909;BME280;36247;51.952;6.146;2023-05-09T00:49:06;101614.22;;;15.51;100.00
29909;BME280;36247;51.952;6.146;2023-05-09T00:51:32;101612.41;;;15.48;100.00
29909;BME280;36247;51.952;6.146;2023-05-09T00:54:00;101601.75;;;15.50;100.00
29909;BME280;36247;51.952;6.146;2023-05-09T00:56:25;101601.72;;;15.44;100.00
29909;BME280;36247;51.952;6.146;2023-05-09T00:58:52;101602.53;;;15.32;100.00
29909;BME280;36247;51.952;6.146;2023-05-09T01:01:20;101602.53;;;15.33;100.00
29909;BME280;36247;51.952;6.146;2023-05-09T01:03:46;101593.56;;;15.25;100.00
29909;BME280;36247;51.952;6.146;2023-05-09T01:08:56;101593.66;;;15.36;100.00
29909;BME280;36247;51.952;6.146;2023-05-09T01:14:14;101586.56;;;15.44;100.00
29909;BME280;36247;51.952;6.146;2023-05-09T01:19:45;101589.06;;;15.18;100.00
29909;BME280;36247;51.952;6.146;2023-05-09T01:22:17;101582.91;;;15.30;100.00
29909;BME280;36247;51.952;6.146;2023-05-09T01:30:33;101569.69;;;15.50;100.00
29909;BME280;36247;51.952;6.146;2023-05-09T01:33:06;101562.56;;;15.49;100.00
29909;BME280;36247;51.952;6.146;2023-05-09T01:35:35;101557.22;;;15.50;100.00
29909;BME280;36247;51.952;6.146;2023-05-09T01:38:08;101559.91;;;15.55;100.00
29909;BME280;36247;51.952;6.146;2023-05-09T01:40:35;101555.47;;;15.52;100.00
29909;BME280;36247;51.952;6.146;2023-05-09T01:43:07;101562.56;;;15.47;100.00
29909;BME280;36247;51.952;6.146;2023-05-09T01:45:35;101559.03;;;15.56;100.00
29909;BME280;36247;51.952;6.146;2023-05-09T01:48:03;101556.34;;;15.50;100.00
29909;BME280;36247;51.952;6.146;2023-05-09T01:50:32;101559.00;;;15.44;100.00
29909;BME280;36247;51.952;6.146;2023-05-09T01:52:59;101550.06;;;15.43;100.00
29909;BME280;36247;51.952;6.146;2023-05-09T01:55:28;101551.91;;;15.55;100.00
29909;BME280;36247;51.952;6.146;2023-05-09T01:57:57;101545.66;;;15.45;100.00
29909;BME280;36247;51.952;6.146;2023-05-09T02:00:24;101554.56;;;15.52;100.00
29909;BME280;36247;51.952;6.146;2023-05-09T02:02:52;101557.22;;;15.50;100.00
29909;BME280;36247;51.952;6.146;2023-05-09T02:05:18;101549.22;;;15.50;100.00
29909;BME280;36247;51.952;6.146;2023-05-09T02:07:46;101550.06;;;15.46;100.00
29909;BME280;36247;51.952;6.146;2023-05-09T02:10:14;101546.50;;;15.38;100.00
29909;BME280;36247;51.952;6.146;2023-05-09T02:12:40;101542.06;;;15.45;100.00
29909;BME280;36247;51.952;6.146;2023-05-09T02:15:06;101542.06;;;15.48;100.00
29909;BME280;36247;51.952;6.146;2023-05-09T02:17:35;101541.22;;;15.55;100.00
29909;BME280;36247;51.952;6.146;2023-05-09T02:20:01;101538.56;;;15.58;100.00
29909;BME280;36247;51.952;6.146;2023-05-09T02:22:27;101543.00;;;15.50;100.00
29909;BME280;36247;51.952;6.146;2023-05-09T02:24:52;101547.50;;;15.59;100.00
29909;BME280;36247;51.952;6.146;2023-05-09T02:27:18;101545.72;;;15.65;100.00
29909;BME280;36247;51.952;6.146;2023-05-09T02:29:48;101542.16;;;15.62;100.00
29909;BME280;36247;51.952;6.146;2023-05-09T02:32:20;101551.94;;;15.63;100.00
29909;BME280;36247;51.952;6.146;2023-05-09T02:34:48;101540.38;;;15.61;100.00
29909;BME280;36247;51.952;6.146;2023-05-09T02:37:15;101537.69;;;15.62;100.00
29909;BME280;36247;51.952;6.146;2023-05-09T02:39:40;101536.81;;;15.60;100.00
29909;BME280;36247;51.952;6.146;2023-05-09T02:42:10;101530.56;;;15.58;100.00
29909;BME280;36247;51.952;6.146;2023-05-09T02:44:36;101528.78;;;15.54;100.00
29909;BME280;36247;51.952;6.146;2023-05-09T02:47:06;101518.94;;;15.41;100.00
29909;BME280;36247;51.952;6.146;2023-05-09T02:49:32;101519.84;;;15.50;100.00
29909;BME280;36247;51.952;6.146;2023-05-09T02:52:00;101520.75;;;15.54;100.00
29909;BME280;36247;51.952;6.146;2023-05-09T02:54:26;101519.84;;;15.55;100.00
29909;BME280;36247;51.952;6.146;2023-05-09T02:56:52;101520.78;;;15.57;100.00
29909;BME280;36247;51.952;6.146;2023-05-09T02:59:17;101518.09;;;15.57;100.00
29909;BME280;36247;51.952;6.146;2023-05-09T03:01:45;101511.84;;;15.58;100.00
29909;BME280;36247;51.952;6.146;2023-05-09T03:04:11;101511.84;;;15.54;100.00
29909;BME280;36247;51.952;6.146;2023-05-09T03:06:36;101511.84;;;15.55;100.00
29909;BME280;36247;51.952;6.146;2023-05-09T03:09:02;101509.16;;;15.50;100.00
29909;BME280;36247;51.952;6.146;2023-05-09T03:11:30;101502.06;;;15.52;100.00
29909;BME280;36247;51.952;6.146;2023-05-09T03:13:56;101507.41;;;15.51;100.00
29909;BME280;36247;51.952;6.146;2023-05-09T03:16:22;101502.06;;;15.54;100.00
29909;BME280;36247;51.952;6.146;2023-05-09T03:18:48;101494.06;;;15.59;100.00
29909;BME280;36247;51.952;6.146;2023-05-09T03:21:14;101493.13;;;15.49;100.00
29909;BME280;36247;51.952;6.146;2023-05-09T03:23:40;101491.31;;;15.43;100.00
29909;BME280;36247;51.952;6.146;2023-05-09T03:26:06;101487.75;;;15.38;100.00
29909;BME280;36247;51.952;6.146;2023-05-09T03:28:32;101485.94;;;15.36;100.00
29909;BME280;36247;51.952;6.146;2023-05-09T03:31:01;101494.81;;;15.25;100.00
29909;BME280;36247;51.952;6.146;2023-05-09T03:33:29;101489.53;;;15.36;100.00
29909;BME280;36247;51.952;6.146;2023-05-09T03:35:55;101477.97;;;15.42;100.00
29909;BME280;36247;51.952;6.146;2023-05-09T03:38:21;101479.72;;;15.29;100.00
29909;BME280;36247;51.952;6.146;2023-05-09T03:40:50;101477.06;;;15.35;100.00
29909;BME280;36247;51.952;6.146;2023-05-09T03:43:16;101478.81;;;15.30;100.00
29909;BME280;36247;51.952;6.146;2023-05-09T03:45:42;101477.03;;;15.27;100.00
29909;BME280;36247;51.952;6.146;2023-05-09T03:48:10;101473.47;;;15.28;100.00
29909;BME280;36247;51.952;6.146;2023-05-09T03:50:41;101470.81;;;15.31;100.00
29909;BME280;36247;51.952;6.146;2023-05-09T03:53:08;101476.16;;;15.34;100.00
29909;BME280;36247;51.952;6.146;2023-05-09T03:55:36;101467.25;;;15.36;100.00
29909;BME280;36247;51.952;6.146;2023-05-09T03:58:02;101473.44;;;15.24;100.00
29909;BME280;36247;51.952;6.146;2023-05-09T04:00:31;101467.19;;;15.12;100.00
29909;BME280;36247;51.952;6.146;2023-05-09T04:03:06;101464.53;;;15.15;100.00
29909;BME280;36247;51.952;6.146;2023-05-09T04:05:37;101467.19;;;15.15;100.00
29909;BME280;36247;51.952;6.146;2023-05-09T04:08:06;101464.56;;;15.23;100.00
29909;BME280;36247;51.952;6.146;2023-05-09T04:10:32;101460.09;;;15.25;100.00
29909;BME280;36247;51.952;6.146;2023-05-09T04:12:58;101453.94;;;15.40;100.00
29909;BME280;36247;51.952;6.146;2023-05-09T04:15:24;101455.59;;;15.15;100.00
29909;BME280;36247;51.952;6.146;2023-05-09T04:17:50;101452.06;;;15.16;100.00
29909;BME280;36247;51.952;6.146;2023-05-09T04:20:15;101441.44;;;15.31;100.00
29909;BME280;36247;51.952;6.146;2023-05-09T04:22:42;101439.66;;;15.24;100.00
29909;BME280;36247;51.952;6.146;2023-05-09T04:25:08;101444.91;;;15.12;100.00
29909;BME280;36247;51.952;6.146;2023-05-09T04:27:39;101451.16;;;15.12;100.00
29909;BME280;36247;51.952;6.146;2023-05-09T04:30:07;101441.41;;;15.25;100.00
29909;BME280;36247;51.952;6.146;2023-05-09T04:32:33;101447.59;;;15.13;100.00
29909;BME280;36247;51.952;6.146;2023-05-09T04:35:00;101450.31;;;15.21;100.00
29909;BME280;36247;51.952;6.146;2023-05-09T04:37:31;101446.72;;;15.13;100.00
29909;BME280;36247;51.952;6.146;2023-05-09T04:39:59;101456.53;;;15.19;100.00
29909;BME280;36247;51.952;6.146;2023-05-09T04:42:36;101452.91;;;15.12;100.00
29909;BME280;36247;51.952;6.146;2023-05-09T04:45:02;101445.75;;;15.05;100.00
29909;BME280;36247;51.952;6.146;2023-05-09T04:47:29;101445.75;;;15.05;100.00
29909;BME280;36247;51.952;6.146;2023-05-09T04:49:55;101453.84;;;15.14;100.00
29909;BME280;36247;51.952;6.146;2023-05-09T04:52:20;101446.69;;;15.10;100.00
29909;BME280;36247;51.952;6.146;2023-05-09T04:54:47;101438.72;;;15.22;100.00
29909;BME280;36247;51.952;6.146;2023-05-09T04:57:14;101426.31;;;15.26;100.00
29909;BME280;36247;51.952;6.146;2023-05-09T04:59:41;101424.53;;;15.25;100.00
29909;BME280;36247;51.952;6.146;2023-05-09T05:02:07;101420.97;;;15.21;100.00
29909;BME280;36247;51.952;6.146;2023-05-09T05:04:32;101419.19;;;15.32;100.00
29909;BME280;36247;51.952;6.146;2023-05-09T05:06:59;101413.84;;;15.31;100.00
29909;BME280;36247;51.952;6.146;2023-05-09T05:09:25;101418.31;;;15.24;100.00
29909;BME280;36247;51.952;6.146;2023-05-09T05:11:51;101417.47;;;15.41;100.00
29909;BME280;36247;51.952;6.146;2023-05-09T05:14:16;101420.13;;;15.41;100.00
29909;BME280;36247;51.952;6.146;2023-05-09T05:16:42;101412.97;;;15.27;100.00
29909;BME280;36247;51.952;6.146;2023-05-09T05:19:08;101412.03;;;15.18;100.00
29909;BME280;36247;51.952;6.146;2023-05-09T05:21:37;101406.75;;;15.33;100.00
29909;BME280;36247;51.952;6.146;2023-05-09T05:24:06;101408.53;;;15.29;100.00
29909;BME280;36247;51.952;6.146;2023-05-09T05:26:31;101397.84;;;15.28;100.00
29909;BME280;36247;51.952;6.146;2023-05-09T05:28:57;101396.97;;;15.37;100.00
29909;BME280;36247;51.952;6.146;2023-05-09T05:31:25;101388.97;;;15.41;100.00
29909;BME280;36247;51.952;6.146;2023-05-09T05:33:50;101394.31;;;15.46;100.00
29909;BME280;36247;51.952;6.146;2023-05-09T05:36:17;101388.97;;;15.44;100.00
29909;BME280;36247;51.952;6.146;2023-05-09T05:38:43;101384.50;;;15.39;100.00
29909;BME280;36247;51.952;6.146;2023-05-09T05:41:10;101383.66;;;15.49;100.00
29909;BME280;36247;51.952;6.146;2023-05-09T05:43:37;101384.56;;;15.54;100.00
29909;BME280;36247;51.952;6.146;2023-05-09T05:46:06;101378.31;;;15.60;100.00
29909;BME280;36247;51.952;6.146;2023-05-09T05:48:33;101376.56;;;15.57;100.00
29909;BME280;36247;51.952;6.146;2023-05-09T05:50:59;101377.44;;;15.68;100.00
29909;BME280;36247;51.952;6.146;2023-05-09T05:53:29;101373.91;;;15.69;100.00
29909;BME280;36247;51.952;6.146;2023-05-09T05:55:55;101370.34;;;15.67;100.00
29909;BME280;36247;51.952;6.146;2023-05-09T05:58:20;101361.41;;;15.64;100.00
29909;BME280;36247;51.952;6.146;2023-05-09T06:00:46;101365.00;;;15.74;100.00
29909;BME280;36247;51.952;6.146;2023-05-09T06:03:12;101361.47;;;15.98;100.00
29909;BME280;36247;51.952;6.146;2023-05-09T06:05:50;101361.50;;;15.87;100.00
29909;BME280;36247;51.952;6.146;2023-05-09T06:08:19;101359.69;;;15.92;100.00
29909;BME280;36247;51.952;6.146;2023-05-09T06:10:44;101352.56;;;15.85;100.00
29909;BME280;36247;51.952;6.146;2023-05-09T06:13:10;101342.72;;;15.70;100.00
29909;BME280;36247;51.952;6.146;2023-05-09T06:15:40;101334.75;;;15.78;100.00
29909;BME280;36247;51.952;6.146;2023-05-09T06:18:06;101341.88;;;15.91;100.00
29909;BME280;36247;51.952;6.146;2023-05-09T06:20:33;101327.63;;;16.12;100.00
29909;BME280;36247;51.952;6.146;2023-05-09T06:23:00;101326.69;;;16.21;100.00
29909;BME280;36247;51.952;6.146;2023-05-09T06:25:26;101322.25;;;16.11;100.00
29909;BME280;36247;51.952;6.146;2023-05-09T06:27:51;101330.31;;;15.95;100.00
29909;BME280;36247;51.952;6.146;2023-05-09T06:30:17;101324.06;;;16.01;100.00
29909;BME280;36247;51.952;6.146;2023-05-09T06:32:43;101325.88;;;15.97;100.00
29909;BME280;36247;51.952;6.146;2023-05-09T06:35:09;101320.50;;;16.00;100.00
29909;BME280;36247;51.952;6.146;2023-05-09T06:37:35;101316.91;;;16.04;100.00
29909;BME280;36247;51.952;6.146;2023-05-09T06:40:01;101308.91;;;15.97;100.00
29909;BME280;36247;51.952;6.146;2023-05-09T06:42:27;101302.66;;;16.16;100.00
29909;BME280;36247;51.952;6.146;2023-05-09T06:44:55;101296.38;;;16.34;100.00
29909;BME280;36247;51.952;6.146;2023-05-09T06:47:20;101298.19;;;16.25;100.00
29909;BME280;36247;51.952;6.146;2023-05-09T06:49:46;101301.75;;;16.19;100.00
29909;BME280;36247;51.952;6.146;2023-05-09T06:52:11;101295.47;;;16.42;100.00
29909;BME280;36247;51.952;6.146;2023-05-09T06:54:40;101290.13;;;16.42;100.00
29909;BME280;36247;51.952;6.146;2023-05-09T06:57:06;101285.66;;;16.48;100.00
29909;BME280;36247;51.952;6.146;2023-05-09T06:59:32;101284.72;;;16.62;100.00
29909;BME280;36247;51.952;6.146;2023-05-09T07:01:58;101275.78;;;16.61;100.00
29909;BME280;36247;51.952;6.146;2023-05-09T07:04:24;101265.91;;;16.79;100.00
29909;BME280;36247;51.952;6.146;2023-05-09T07:06:50;101268.38;;;17.17;100.00
29909;BME280;36247;51.952;6.146;2023-05-09T07:09:16;101269.53;;;16.67;100.00
29909;BME280;36247;51.952;6.146;2023-05-09T07:11:43;101265.94;;;16.72;100.00
29909;BME280;36247;51.952;6.146;2023-05-09T07:14:10;101261.44;;;16.76;100.00
29909;BME280;36247;51.952;6.146;2023-05-09T07:16:36;101259.63;;;16.92;100.00
29909;BME280;36247;51.952;6.146;2023-05-09T07:19:01;101264.97;;;16.84;100.00
29909;BME280;36247;51.952;6.146;2023-05-09T07:21:28;101260.56;;;16.74;100.00
29909;BME280;36247;51.952;6.146;2023-05-09T07:23:55;101257.78;;;17.05;100.00
29909;BME280;36247;51.952;6.146;2023-05-09T07:26:20;101253.34;;;16.99;100.00
29909;BME280;36247;51.952;6.146;2023-05-09T07:28:46;101251.44;;;17.18;100.00
29909;BME280;36247;51.952;6.146;2023-05-09T07:31:11;101252.13;;;17.40;100.00
29909;BME280;36247;51.952;6.146;2023-05-09T07:33:37;101248.50;;;17.48;100.00
29909;BME280;36247;51.952;6.146;2023-05-09T07:36:03;101237.06;;;17.28;100.00
29909;BME280;36247;51.952;6.146;2023-05-09T07:38:30;101238.66;;;17.54;100.00
29909;BME280;36247;51.952;6.146;2023-05-09T07:40:55;101242.06;;;17.70;100.00
29909;BME280;36247;51.952;6.146;2023-05-09T07:43:21;101236.16;;;17.30;100.00
29909;BME280;36247;51.952;6.146;2023-05-09T07:45:46;101242.38;;;17.36;100.00
29909;BME280;36247;51.952;6.146;2023-05-09T07:48:12;101232.50;;;17.41;100.00
29909;BME280;36247;51.952;6.146;2023-05-09T07:50:37;101233.31;;;17.51;100.00
29909;BME280;36247;51.952;6.146;2023-05-09T07:53:03;101224.44;;;17.43;100.00
29909;BME280;36247;51.952;6.146;2023-05-09T07:55:32;101226.00;;;17.67;100.00
29909;BME280;36247;51.952;6.146;2023-05-09T07:57:58;101211.53;;;17.93;100.00
29909;BME280;36247;51.952;6.146;2023-05-09T08:00:23;101207.81;;;18.03;100.00
29909;BME280;36247;51.952;6.146;2023-05-09T08:02:50;101201.00;;;17.70;100.00
29909;BME280;36247;51.952;6.146;2023-05-09T08:05:16;101199.09;;;17.83;100.00
29909;BME280;36247;51.952;6.146;2023-05-09T08:07:43;101195.44;;;17.90;100.00
29909;BME280;36247;51.952;6.146;2023-05-09T08:10:11;101195.28;;;18.07;100.00
29909;BME280;36247;51.952;6.146;2023-05-09T08:12:37;101193.78;;;17.73;100.00
29909;BME280;36247;51.952;6.146;2023-05-09T08:15:03;101190.41;;;18.40;100.00
29909;BME280;36247;51.952;6.146;2023-05-09T08:17:29;101187.81;;;18.33;100.00
29909;BME280;36247;51.952;6.146;2023-05-09T08:19:55;101183.53;;;18.19;100.00
29909;BME280;36247;51.952;6.146;2023-05-09T08:22:20;101185.50;;;18.01;100.00
29909;BME280;36247;51.952;6.146;2023-05-09T08:24:46;101174.69;;;18.09;100.00
29909;BME280;36247;51.952;6.146;2023-05-09T08:27:12;101171.59;;;18.41;100.00
29909;BME280;36247;51.952;6.146;2023-05-09T08:29:40;101171.00;;;18.19;100.00
29909;BME280;36247;51.952;6.146;2023-05-09T08:32:07;101167.91;;;18.50;100.00
29909;BME280;36247;51.952;6.146;2023-05-09T08:34:33;101172.16;;;17.96;100.00
29909;BME280;36247;51.952;6.146;2023-05-09T08:37:01;101165.25;;;18.48;100.00
29909;BME280;36247;51.952;6.146;2023-05-09T08:39:27;101166.06;;;18.54;100.00
29909;BME280;36247;51.952;6.146;2023-05-09T08:41:57;101163.66;;;18.35;100.00
29909;BME280;36247;51.952;6.146;2023-05-09T08:44:30;101167.41;;;18.89;100.00
29909;BME280;36247;51.952;6.146;2023-05-09T08:47:02;101163.19;;;18.69;100.00
29909;BME280;36247;51.952;6.146;2023-05-09T08:49:28;101156.91;;;18.68;100.00
29909;BME280;36247;51.952;6.146;2023-05-09T08:51:56;101158.53;;;18.80;100.00
29909;BME280;36247;51.952;6.146;2023-05-09T08:54:22;101151.47;;;18.73;100.00
29909;BME280;36247;51.952;6.146;2023-05-09T08:56:50;101145.53;;;18.53;100.00
29909;BME280;36247;51.952;6.146;2023-05-09T08:59:16;101143.97;;;18.35;100.00
29909;BME280;36247;51.952;6.146;2023-05-09T09:01:43;101140.44;;;18.31;100.00
29909;BME280;36247;51.952;6.146;2023-05-09T09:04:09;101134.59;;;18.00;100.00
29909;BME280;36247;51.952;6.146;2023-05-09T09:06:39;101134.28;;;18.24;100.00
29909;BME280;36247;51.952;6.146;2023-05-09T09:09:07;101130.81;;;18.16;100.00
29909;BME280;36247;51.952;6.146;2023-05-09T09:11:36;101131.47;;;18.35;100.00
29909;BME280;36247;51.952;6.146;2023-05-09T09:14:11;101124.91;;;18.55;100.00
29909;BME280;36247;51.952;6.146;2023-05-09T09:16:41;101132.06;;;18.56;100.00
29909;BME280;36247;51.952;6.146;2023-05-09T09:19:11;101133.88;;;18.54;100.00
29909;BME280;36247;51.952;6.146;2023-05-09T09:21:39;101127.41;;;18.02;100.00
29909;BME280;36247;51.952;6.146;2023-05-09T09:24:07;101122.81;;;18.13;100.00
29909;BME280;36247;51.952;6.146;2023-05-09T09:26:45;101122.94;;;18.04;100.00
29909;BME280;36247;51.952;6.146;2023-05-09T09:29:11;101120.81;;;18.29;100.00
29909;BME280;36247;51.952;6.146;2023-05-09T09:31:37;101114.66;;;18.21;100.00
29909;BME280;36247;51.952;6.146;2023-05-09T09:34:02;101111.13;;;18.19;100.00
29909;BME280;36247;51.952;6.146;2023-05-09T09:36:30;101113.94;;;18.09;100.00
29909;BME280;36247;51.952;6.146;2023-05-09T09:39:03;101109.56;;;18.01;100.00
29909;BME280;36247;51.952;6.146;2023-05-09T09:43:57;101108.13;;;17.67;100.00
29909;BME280;36247;51.952;6.146;2023-05-09T09:46:23;101111.56;;;17.80;100.00
29909;BME280;36247;51.952;6.146;2023-05-09T09:48:48;101107.34;;;17.59;100.00
29909;BME280;36247;51.952;6.146;2023-05-09T09:51:18;101111.78;;;17.58;100.00
29909;BME280;36247;51.952;6.146;2023-05-09T09:53:45;101100.88;;;17.77;100.00
29909;BME280;36247;51.952;6.146;2023-05-09T09:56:11;101107.03;;;17.84;100.00
29909;BME280;36247;51.952;6.146;2023-05-09T09:58:37;101109.47;;;18.08;100.00
29909;BME280;36247;51.952;6.146;2023-05-09T10:01:08;101103.53;;;17.80;100.00
29909;BME280;36247;51.952;6.146;2023-05-09T10:03:40;101100.88;;;17.77;100.00
29909;BME280;36247;51.952;6.146;2023-05-09T10:06:11;101091.56;;;18.10;100.00
29909;BME280;36247;51.952;6.146;2023-05-09T10:08:38;101100.22;;;18.31;100.00
29909;BME280;36247;51.952;6.146;2023-05-09T10:11:06;101099.13;;;17.74;100.00
29909;BME280;36247;51.952;6.146;2023-05-09T10:13:35;101094.69;;;18.42;100.00
29909;BME280;36247;51.952;6.146;2023-05-09T10:16:03;101083.50;;;18.12;100.00
29909;BME280;36247;51.952;6.146;2023-05-09T10:18:34;101091.34;;;18.27;100.00
29909;BME280;36247;51.952;6.146;2023-05-09T10:21:00;101088.63;;;18.88;100.00
29909;BME280;36247;51.952;6.146;2023-05-09T10:23:36;101075.31;;;18.80;100.00
29909;BME280;36247;51.952;6.146;2023-05-09T10:26:29;101086.91;;;18.25;100.00
29909;BME280;36247;51.952;6.146;2023-05-09T10:28:57;101066.91;;;18.47;100.00
29909;BME280;36247;51.952;6.146;2023-05-09T10:31:27;101070.75;;;18.28;100.00
29909;BME280;36247;51.952;6.146;2023-05-09T10:33:54;101075.72;;;18.56;100.00
29909;BME280;36247;51.952;6.146;2023-05-09T10:36:23;101066.16;;;18.36;100.00
29909;BME280;36247;51.952;6.146;2023-05-09T10:38:52;101067.09;;;18.35;100.00
29909;BME280;36247;51.952;6.146;2023-05-09T10:41:19;101060.41;;;18.00;100.00
29909;BME280;36247;51.952;6.146;2023-05-09T10:43:46;101068.94;;;18.30;100.00
29909;BME280;36247;51.952;6.146;2023-05-09T10:46:12;101057.72;;;18.00;100.00
29909;BME280;36247;51.952;6.146;2023-05-09T10:48:40;101058.59;;;18.04;100.00
29909;BME280;36247;51.952;6.146;2023-05-09T10:51:07;101044.47;;;17.91;100.00
29909;BME280;36247;51.952;6.146;2023-05-09T10:56:29;101035.88;;;18.29;100.00
29909;BME280;36247;51.952;6.146;2023-05-09T10:59:00;101042.09;;;18.31;100.00
29909;BME280;36247;51.952;6.146;2023-05-09T11:01:35;101042.47;;;18.07;100.00
29909;BME280;36247;51.952;6.146;2023-05-09T11:04:13;101040.63;;;18.10;100.00
29909;BME280;36247;51.952;6.146;2023-05-09T11:06:47;101044.47;;;17.91;100.00
29909;BME280;36247;51.952;6.146;2023-05-09T11:09:35;101031.78;;;18.04;100.00
29909;BME280;36247;51.952;6.146;2023-05-09T11:14:46;101033.47;;;18.12;100.00
29909;BME280;36247;51.952;6.146;2023-05-09T11:22:18;101030.22;;;17.86;100.00
29909;BME280;36247;51.952;6.146;2023-05-09T11:24:48;101026.47;;;18.01;100.00
29909;BME280;36247;51.952;6.146;2023-05-09T11:27:23;101025.13;;;17.62;100.00
29909;BME280;36247;51.952;6.146;2023-05-09T11:32:15;101020.28;;;17.95;100.00
29909;BME280;36247;51.952;6.146;2023-05-09T11:34:42;101022.28;;;17.75;100.00
29909;BME280;36247;51.952;6.146;2023-05-09T11:37:11;101022.59;;;17.50;100.00
29909;BME280;36247;51.952;6.146;2023-05-09T11:39:58;101016.31;;;17.56;100.00
29909;BME280;36247;51.952;6.146;2023-05-09T11:42:26;101028.19;;;17.28;100.00
29909;BME280;36247;51.952;6.146;2023-05-09T11:44:52;101017.53;;;17.25;100.00
29909;BME280;36247;51.952;6.146;2023-05-09T11:47:19;101012.66;;;17.63;100.00
29909;BME280;36247;51.952;6.146;2023-05-09T11:49:48;101014.16;;;17.09;100.00
29909;BME280;36247;51.952;6.146;2023-05-09T11:52:15;101017.16;;;16.69;100.00
29909;BME280;36247;51.952;6.146;2023-05-09T11:54:41;101015.25;;;16.81;100.00
29909;BME280;36247;51.952;6.146;2023-05-09T11:57:07;101013.47;;;16.83;100.00
29909;BME280;36247;51.952;6.146;2023-05-09T11:59:35;101014.44;;;16.75;100.00
29909;BME280;36247;51.952;6.146;2023-05-09T12:02:06;101009.84;;;16.93;100.00
29909;BME280;36247;51.952;6.146;2023-05-09T12:04:32;101005.56;;;16.66;100.00
29909;BME280;36247;51.952;6.146;2023-05-09T12:06:59;101000.22;;;16.67;100.00
29909;BME280;36247;51.952;6.146;2023-05-09T12:09:31;100999.22;;;16.78;100.00
29909;BME280;36247;51.952;6.146;2023-05-09T12:11:57;100992.97;;;16.82;100.00
29909;BME280;36247;51.952;6.146;2023-05-09T12:14:27;100988.94;;;17.29;100.00
29909;BME280;36247;51.952;6.146;2023-05-09T12:16:53;100988.38;;;16.99;100.00
29909;BME280;36247;51.952;6.146;2023-05-09T12:19:20;100990.34;;;16.75;100.00
29909;BME280;36247;51.952;6.146;2023-05-09T12:21:47;100991.13;;;16.91;100.00
29909;BME280;36247;51.952;6.146;2023-05-09T12:24:12;100981.34;;;16.84;100.00
29909;BME280;36247;51.952;6.146;2023-05-09T12:26:38;100990.41;;;16.69;100.00
29909;BME280;36247;51.952;6.146;2023-05-09T12:29:06;100983.47;;;16.47;100.00
29909;BME280;36247;51.952;6.146;2023-05-09T12:31:32;100976.53;;;16.18;100.00
29909;BME280;36247;51.952;6.146;2023-05-09T12:33:58;100978.09;;;16.50;100.00
29909;BME280;36247;51.952;6.146;2023-05-09T12:36:23;100982.75;;;16.23;100.00
29909;BME280;36247;51.952;6.146;2023-05-09T12:38:54;100977.38;;;16.28;100.00
29909;BME280;36247;51.952;6.146;2023-05-09T12:41:19;100977.41;;;16.25;100.00
29909;BME280;36247;51.952;6.146;2023-05-09T12:43:49;100990.94;;;15.98;100.00
29909;BME280;36247;51.952;6.146;2023-05-09T12:46:20;100978.50;;;15.97;100.00
29909;BME280;36247;51.952;6.146;2023-05-09T12:48:46;100975.81;;;15.93;100.00
29909;BME280;36247;51.952;6.146;2023-05-09T12:51:22;100977.56;;;15.98;100.00
29909;BME280;36247;51.952;6.146;2023-05-09T12:53:48;100975.00;;;15.81;100.00
29909;BME280;36247;51.952;6.146;2023-05-09T12:56:20;100977.72;;;15.67;100.00
29909;BME280;36247;51.952;6.146;2023-05-09T12:58:51;100977.78;;;15.52;100.00
29909;BME280;36247;51.952;6.146;2023-05-09T13:01:25;100985.81;;;15.50;100.00
29909;BME280;36247;51.952;6.146;2023-05-09T13:04:02;100979.59;;;15.48;100.00
29909;BME280;36247;51.952;6.146;2023-05-09T13:06:31;100976.88;;;15.59;100.00
29909;BME280;36247;51.952;6.146;2023-05-09T13:09:02;100965.41;;;15.34;100.00
29909;BME280;36247;51.952;6.146;2023-05-09T13:11:31;100971.63;;;15.42;100.00